SAS25 EGLL-EKCH
Flight info
| Callsign | SAS25 |
|---|---|
| Flight time | 1h 28m |
| Altitude | 37000 |
| Route | BPK Q295 PAAVO M604 GIVPO DCT VENAS DCT LARGA DCT SOPTO DCT DOREV DCT TESPI |
| Aircraft | A320/M-SDE3FGHIJ1RWXYZ/ALB1 |
Departure
| Time | 2026-04-23 20:58 |
|---|---|
| Airport | London Heathrow Airport (EGLL) |
Arrival
| Time | 2026-04-23 22:26 |
|---|---|
| Airport | Copenhagen Kastrup Airport (EKCH) |
| Time | Latitude | Longitude | Altitude | Speed | Heading |
|---|---|---|---|---|---|
| 2026-04-23 20:01 | 51.46818 | -0.45113 | 90 ft | 0 kts | 359° |
| 2026-04-23 20:34 | 51.46812 | -0.45113 | 90 ft | 4 kts | 359° |
| 2026-04-23 20:35 | 51.46785 | -0.45111 | 90 ft | 4 kts | 359° |
| 2026-04-23 20:35 | 51.46763 | -0.45110 | 90 ft | 4 kts | 332° |
| 2026-04-23 20:35 | 51.46752 | -0.45082 | 92 ft | 4 kts | 272° |
| 2026-04-23 20:35 | 51.46752 | -0.45041 | 91 ft | 4 kts | 269° |
| 2026-04-23 20:36 | 51.46753 | -0.44998 | 92 ft | 4 kts | 269° |
| 2026-04-23 20:36 | 51.46754 | -0.44967 | 92 ft | 0 kts | 269° |
| 2026-04-23 20:44 | 51.46754 | -0.44968 | 92 ft | 0 kts | 269° |
| 2026-04-23 20:45 | 51.46753 | -0.44984 | 93 ft | 1 kts | 268° |
| 2026-04-23 20:45 | 51.46729 | -0.45050 | 91 ft | 12 kts | 207° |
| 2026-04-23 20:45 | 51.46668 | -0.45139 | 92 ft | 13 kts | 252° |
| 2026-04-23 20:45 | 51.46662 | -0.45307 | 90 ft | 17 kts | 270° |
| 2026-04-23 20:46 | 51.46661 | -0.45488 | 87 ft | 17 kts | 269° |
| 2026-04-23 20:46 | 51.46661 | -0.45705 | 86 ft | 21 kts | 269° |
| 2026-04-23 20:46 | 51.46660 | -0.45910 | 88 ft | 17 kts | 270° |
| 2026-04-23 20:46 | 51.46659 | -0.46087 | 92 ft | 15 kts | 270° |
| 2026-04-23 20:47 | 51.46659 | -0.46246 | 91 ft | 14 kts | 270° |
| 2026-04-23 20:47 | 51.46659 | -0.46373 | 95 ft | 11 kts | 270° |
| 2026-04-23 20:47 | 51.46659 | -0.46506 | 95 ft | 10 kts | 269° |
| 2026-04-23 20:47 | 51.46658 | -0.46630 | 96 ft | 12 kts | 269° |
| 2026-04-23 20:48 | 51.46658 | -0.46764 | 94 ft | 12 kts | 270° |
| 2026-04-23 20:48 | 51.46658 | -0.46917 | 93 ft | 15 kts | 270° |
| 2026-04-23 20:48 | 51.46657 | -0.47099 | 92 ft | 17 kts | 269° |
| 2026-04-23 20:48 | 51.46656 | -0.47303 | 88 ft | 17 kts | 269° |
| 2026-04-23 20:49 | 51.46654 | -0.47512 | 86 ft | 17 kts | 269° |
| 2026-04-23 20:49 | 51.46654 | -0.47698 | 86 ft | 18 kts | 269° |
| 2026-04-23 20:49 | 51.46654 | -0.47885 | 88 ft | 14 kts | 270° |
| 2026-04-23 20:49 | 51.46653 | -0.48049 | 91 ft | 15 kts | 269° |
| 2026-04-23 20:50 | 51.46653 | -0.48197 | 93 ft | 14 kts | 269° |
| 2026-04-23 20:50 | 51.46652 | -0.48356 | 95 ft | 15 kts | 269° |
| 2026-04-23 20:50 | 51.46650 | -0.48539 | 95 ft | 18 kts | 269° |
| 2026-04-23 20:50 | 51.46649 | -0.48679 | 93 ft | 8 kts | 269° |
| 2026-04-23 20:51 | 51.46639 | -0.48729 | 94 ft | 0 kts | 232° |
| 2026-04-23 20:52 | 51.46637 | -0.48733 | 93 ft | 3 kts | 232° |
| 2026-04-23 20:52 | 51.46615 | -0.48757 | 94 ft | 5 kts | 207° |
| 2026-04-23 20:52 | 51.46598 | -0.48767 | 92 ft | 0 kts | 199° |
| 2026-04-23 20:53 | 51.46598 | -0.48768 | 91 ft | 1 kts | 199° |
| 2026-04-23 20:53 | 51.46597 | -0.48768 | 91 ft | 0 kts | 199° |
| 2026-04-23 20:54 | 51.46595 | -0.48769 | 91 ft | 3 kts | 199° |
| 2026-04-23 20:54 | 51.46593 | -0.48770 | 91 ft | 0 kts | 199° |
| 2026-04-23 20:54 | 51.46592 | -0.48771 | 91 ft | 0 kts | 199° |
| 2026-04-23 20:54 | 51.46590 | -0.48772 | 91 ft | 2 kts | 198° |
| 2026-04-23 20:55 | 51.46582 | -0.48776 | 93 ft | 0 kts | 198° |
| 2026-04-23 20:55 | 51.46579 | -0.48777 | 93 ft | 2 kts | 197° |
| 2026-04-23 20:55 | 51.46518 | -0.48776 | 93 ft | 15 kts | 160° |
| 2026-04-23 20:55 | 51.46475 | -0.48638 | 93 ft | 12 kts | 97° |
| 2026-04-23 20:56 | 51.46475 | -0.48609 | 95 ft | 0 kts | 89° |
| 2026-04-23 20:56 | 51.46477 | -0.48491 | 93 ft | 27 kts | 89° |
| 2026-04-23 20:57 | 51.46481 | -0.47829 | 90 ft | 94 kts | 89° |
| 2026-04-23 20:57 | 51.46491 | -0.46483 | 94 ft | 145 kts | 89° |
| 2026-04-23 20:57 | 51.46520 | -0.44543 | 113 ft | 203 kts | 90° |
| 2026-04-23 20:57 | 51.46524 | -0.42121 | 664 ft | 224 kts | 89° |
| 2026-04-23 20:58 | 51.46710 | -0.39705 | 1690 ft | 216 kts | 69° |
| 2026-04-23 20:58 | 51.47554 | -0.37674 | 2280 ft | 224 kts | 51° |
| 2026-04-23 20:58 | 51.48668 | -0.35876 | 2847 ft | 230 kts | 47° |
| 2026-04-23 20:58 | 51.49836 | -0.34090 | 3407 ft | 234 kts | 47° |
| 2026-04-23 20:59 | 51.50609 | -0.32870 | 3778 ft | 236 kts | 49° |
| 2026-04-23 20:59 | 51.51750 | -0.30941 | 4333 ft | 239 kts | 54° |
| 2026-04-23 20:59 | 51.52535 | -0.28590 | 4900 ft | 242 kts | 70° |
| 2026-04-23 20:59 | 51.53141 | -0.26045 | 5460 ft | 247 kts | 72° |
| 2026-04-23 21:00 | 51.53718 | -0.23410 | 5901 ft | 255 kts | 72° |
| 2026-04-23 21:00 | 51.54360 | -0.20737 | 5991 ft | 259 kts | 61° |
| 2026-04-23 21:00 | 51.55678 | -0.18781 | 6005 ft | 266 kts | 28° |
| 2026-04-23 21:00 | 51.57475 | -0.17971 | 6046 ft | 270 kts | 14° |
| 2026-04-23 21:01 | 51.59309 | -0.17336 | 6055 ft | 271 kts | 11° |
| 2026-04-23 21:01 | 51.61171 | -0.16844 | 6087 ft | 272 kts | 14° |
| 2026-04-23 21:01 | 51.63041 | -0.16156 | 6419 ft | 276 kts | 17° |
| 2026-04-23 21:01 | 51.64877 | -0.15380 | 6458 ft | 271 kts | 18° |
| 2026-04-23 21:02 | 51.66684 | -0.14557 | 6462 ft | 270 kts | 19° |
| 2026-04-23 21:02 | 51.68486 | -0.13714 | 6463 ft | 270 kts | 19° |
| 2026-04-23 21:02 | 51.70287 | -0.12867 | 6463 ft | 270 kts | 19° |
| 2026-04-23 21:02 | 51.72084 | -0.11999 | 6460 ft | 269 kts | 24° |
| 2026-04-23 21:03 | 51.73651 | -0.10519 | 6457 ft | 264 kts | 44° |
| 2026-04-23 21:03 | 51.74797 | -0.08249 | 6549 ft | 264 kts | 64° |
| 2026-04-23 21:03 | 51.75378 | -0.05439 | 7400 ft | 264 kts | 81° |
| 2026-04-23 21:03 | 51.75636 | -0.02501 | 8374 ft | 265 kts | 82° |
| 2026-04-23 21:04 | 51.75891 | 0.00467 | 9260 ft | 269 kts | 82° |
| 2026-04-23 21:04 | 51.76144 | 0.03482 | 10156 ft | 273 kts | 82° |
| 2026-04-23 21:04 | 51.76402 | 0.06565 | 10804 ft | 285 kts | 82° |
| 2026-04-23 21:04 | 51.76677 | 0.09865 | 11114 ft | 307 kts | 82° |
| 2026-04-23 21:05 | 51.76963 | 0.13334 | 11733 ft | 315 kts | 83° |
| 2026-04-23 21:05 | 51.77252 | 0.16866 | 12512 ft | 319 kts | 83° |
| 2026-04-23 21:05 | 51.77545 | 0.20430 | 13319 ft | 322 kts | 83° |
| 2026-04-23 21:05 | 51.77841 | 0.24034 | 14135 ft | 325 kts | 83° |
| 2026-04-23 21:06 | 51.78137 | 0.27665 | 14859 ft | 328 kts | 83° |
| 2026-04-23 21:06 | 51.78436 | 0.31350 | 15544 ft | 333 kts | 83° |
| 2026-04-23 21:06 | 51.78736 | 0.35083 | 16198 ft | 337 kts | 83° |
| 2026-04-23 21:06 | 51.79040 | 0.38862 | 16840 ft | 342 kts | 84° |
| 2026-04-23 21:07 | 51.79346 | 0.42696 | 17484 ft | 347 kts | 84° |
| 2026-04-23 21:07 | 51.79655 | 0.46585 | 18115 ft | 351 kts | 84° |
| 2026-04-23 21:07 | 51.79965 | 0.50524 | 18692 ft | 357 kts | 84° |
| 2026-04-23 21:07 | 51.80279 | 0.54545 | 19172 ft | 363 kts | 84° |
| 2026-04-23 21:08 | 51.80591 | 0.58564 | 19721 ft | 367 kts | 85° |
| 2026-04-23 21:08 | 51.80922 | 0.62746 | 20224 ft | 373 kts | 83° |
| 2026-04-23 21:08 | 51.81543 | 0.66781 | 20813 ft | 378 kts | 72° |
| 2026-04-23 21:08 | 51.82560 | 0.70789 | 21387 ft | 382 kts | 69° |
| 2026-04-23 21:09 | 51.83584 | 0.74715 | 21935 ft | 386 kts | 70° |
| 2026-04-23 21:09 | 51.84627 | 0.78728 | 22487 ft | 389 kts | 70° |
| 2026-04-23 21:09 | 51.85763 | 0.82727 | 23028 ft | 395 kts | 64° |
| 2026-04-23 21:09 | 51.87311 | 0.86434 | 23579 ft | 402 kts | 53° |
| 2026-04-23 21:10 | 51.89280 | 0.89699 | 24092 ft | 409 kts | 44° |
| 2026-04-23 21:10 | 51.91413 | 0.92773 | 24540 ft | 413 kts | 45° |
| 2026-04-23 21:10 | 51.93564 | 0.95883 | 24983 ft | 416 kts | 45° |
| 2026-04-23 21:10 | 51.95726 | 0.99032 | 25408 ft | 419 kts | 45° |
| 2026-04-23 21:11 | 51.97892 | 1.02205 | 25851 ft | 421 kts | 45° |
| 2026-04-23 21:11 | 52.00075 | 1.05411 | 26273 ft | 425 kts | 45° |
| 2026-04-23 21:11 | 52.02273 | 1.08638 | 26681 ft | 428 kts | 45° |
| 2026-04-23 21:11 | 52.04491 | 1.11889 | 27080 ft | 431 kts | 45° |
| 2026-04-23 21:12 | 52.06864 | 1.14932 | 27451 ft | 437 kts | 40° |
| 2026-04-23 21:12 | 52.09310 | 1.17905 | 27826 ft | 441 kts | 40° |
| 2026-04-23 21:12 | 52.11775 | 1.20906 | 28200 ft | 444 kts | 40° |
| 2026-04-23 21:12 | 52.14217 | 1.23995 | 28574 ft | 446 kts | 42° |
| 2026-04-23 21:13 | 52.16628 | 1.27205 | 28946 ft | 449 kts | 43° |
| 2026-04-23 21:13 | 52.19019 | 1.30494 | 29314 ft | 452 kts | 44° |
| 2026-04-23 21:13 | 52.21414 | 1.33841 | 29689 ft | 455 kts | 44° |
| 2026-04-23 21:13 | 52.23823 | 1.37209 | 30045 ft | 458 kts | 44° |
| 2026-04-23 21:14 | 52.26258 | 1.40587 | 30406 ft | 461 kts | 44° |
| 2026-04-23 21:14 | 52.28718 | 1.43967 | 30714 ft | 464 kts | 43° |
| 2026-04-23 21:14 | 52.31207 | 1.47370 | 31017 ft | 467 kts | 43° |
| 2026-04-23 21:14 | 52.33683 | 1.50824 | 31323 ft | 468 kts | 47° |
| 2026-04-23 21:15 | 52.35983 | 1.54592 | 31648 ft | 469 kts | 49° |
| 2026-04-23 21:15 | 52.38268 | 1.58405 | 31968 ft | 470 kts | 49° |
| 2026-04-23 21:15 | 52.40553 | 1.62237 | 32403 ft | 469 kts | 50° |
| 2026-04-23 21:15 | 52.42823 | 1.66060 | 32858 ft | 468 kts | 50° |
| 2026-04-23 21:16 | 52.45087 | 1.69889 | 33314 ft | 467 kts | 50° |
| 2026-04-23 21:16 | 52.47343 | 1.73709 | 33752 ft | 466 kts | 50° |
| 2026-04-23 21:16 | 52.49601 | 1.77524 | 34201 ft | 466 kts | 50° |
| 2026-04-23 21:16 | 52.51857 | 1.81339 | 34616 ft | 465 kts | 50° |
| 2026-04-23 21:17 | 52.54104 | 1.85152 | 34975 ft | 464 kts | 50° |
| 2026-04-23 21:17 | 52.56347 | 1.88960 | 35353 ft | 463 kts | 50° |
| 2026-04-23 21:17 | 52.58586 | 1.92765 | 35728 ft | 462 kts | 50° |
| 2026-04-23 21:17 | 52.60814 | 1.96559 | 36096 ft | 461 kts | 50° |
| 2026-04-23 21:18 | 52.63036 | 2.00351 | 36440 ft | 460 kts | 50° |
| 2026-04-23 21:18 | 52.65251 | 2.04146 | 36777 ft | 459 kts | 50° |
| 2026-04-23 21:18 | 52.67430 | 2.07888 | 37106 ft | 458 kts | 50° |
| 2026-04-23 21:18 | 52.69634 | 2.11679 | 37389 ft | 458 kts | 50° |
| 2026-04-23 21:19 | 52.74033 | 2.19244 | 37450 ft | 456 kts | 50° |
| 2026-04-23 21:19 | 52.78421 | 2.26810 | 37450 ft | 456 kts | 50° |
| 2026-04-23 21:20 | 52.82813 | 2.34390 | 37450 ft | 456 kts | 50° |
| 2026-04-23 21:20 | 52.87197 | 2.41987 | 37445 ft | 456 kts | 50° |
| 2026-04-23 21:21 | 52.91565 | 2.49605 | 37443 ft | 456 kts | 50° |
| 2026-04-23 21:21 | 52.95933 | 2.57245 | 37435 ft | 456 kts | 49° |
| 2026-04-23 21:22 | 53.00920 | 2.63810 | 37428 ft | 462 kts | 31° |
| 2026-04-23 21:22 | 53.06668 | 2.68608 | 37431 ft | 463 kts | 28° |
| 2026-04-23 21:23 | 53.12437 | 2.73390 | 37426 ft | 463 kts | 28° |
| 2026-04-23 21:23 | 53.18209 | 2.78203 | 37445 ft | 464 kts | 28° |
| 2026-04-23 21:24 | 53.23975 | 2.83037 | 37439 ft | 464 kts | 28° |
| 2026-04-23 21:24 | 53.29746 | 2.87861 | 37438 ft | 464 kts | 27° |
| 2026-04-23 21:25 | 53.35623 | 2.92381 | 37439 ft | 465 kts | 25° |
| 2026-04-23 21:25 | 53.41555 | 2.96694 | 37438 ft | 465 kts | 25° |
| 2026-04-23 21:26 | 53.47478 | 3.01060 | 37434 ft | 465 kts | 25° |
| 2026-04-23 21:26 | 53.53381 | 3.05530 | 37434 ft | 465 kts | 26° |
| 2026-04-23 21:27 | 53.59270 | 3.10034 | 37439 ft | 465 kts | 26° |
| 2026-04-23 21:27 | 53.65128 | 3.14493 | 37441 ft | 465 kts | 25° |
| 2026-04-23 21:28 | 53.71055 | 3.19007 | 37452 ft | 464 kts | 25° |
| 2026-04-23 21:28 | 53.76891 | 3.23471 | 37453 ft | 464 kts | 25° |
| 2026-04-23 21:29 | 53.82758 | 3.27986 | 37458 ft | 463 kts | 25° |
| 2026-04-23 21:29 | 53.88629 | 3.32515 | 37458 ft | 463 kts | 25° |
| 2026-04-23 21:30 | 53.94494 | 3.37044 | 37458 ft | 463 kts | 25° |
| 2026-04-23 21:30 | 54.00360 | 3.41588 | 37453 ft | 463 kts | 25° |
| 2026-04-23 21:31 | 54.06225 | 3.46150 | 37456 ft | 464 kts | 25° |
| 2026-04-23 21:31 | 54.12089 | 3.50726 | 37455 ft | 464 kts | 25° |
| 2026-04-23 21:32 | 54.17956 | 3.55314 | 37456 ft | 464 kts | 25° |
| 2026-04-23 21:32 | 54.23819 | 3.59927 | 37458 ft | 464 kts | 25° |
| 2026-04-23 21:33 | 54.29683 | 3.64545 | 37449 ft | 464 kts | 25° |
| 2026-04-23 21:33 | 54.35487 | 3.69380 | 37450 ft | 464 kts | 27° |
| 2026-04-23 21:34 | 54.41199 | 3.74540 | 37441 ft | 464 kts | 28° |
| 2026-04-23 21:34 | 54.46891 | 3.79742 | 37458 ft | 463 kts | 28° |
| 2026-04-23 21:35 | 54.52595 | 3.84857 | 37452 ft | 462 kts | 27° |
| 2026-04-23 21:35 | 54.58273 | 3.89898 | 37451 ft | 462 kts | 27° |
| 2026-04-23 21:36 | 54.66820 | 3.97576 | 37447 ft | 462 kts | 27° |
| 2026-04-23 21:37 | 54.72511 | 4.02728 | 37445 ft | 462 kts | 27° |
| 2026-04-23 21:37 | 54.78200 | 4.07896 | 37443 ft | 462 kts | 27° |
| 2026-04-23 21:38 | 54.83882 | 4.13095 | 37430 ft | 462 kts | 31° |
| 2026-04-23 21:38 | 54.88882 | 4.20018 | 37423 ft | 460 kts | 48° |
| 2026-04-23 21:39 | 54.93208 | 4.28219 | 37426 ft | 461 kts | 48° |
| 2026-04-23 21:39 | 54.97541 | 4.36438 | 37409 ft | 461 kts | 48° |
| 2026-04-23 21:40 | 55.01880 | 4.44675 | 37412 ft | 461 kts | 47° |
| 2026-04-23 21:40 | 55.06215 | 4.52935 | 37415 ft | 462 kts | 48° |
| 2026-04-23 21:41 | 55.10536 | 4.61223 | 37407 ft | 462 kts | 48° |
| 2026-04-23 21:41 | 55.14850 | 4.69526 | 37409 ft | 462 kts | 48° |
| 2026-04-23 21:42 | 55.19162 | 4.77856 | 37414 ft | 462 kts | 48° |
| 2026-04-23 21:42 | 55.23468 | 4.86210 | 37404 ft | 462 kts | 48° |
| 2026-04-23 21:43 | 55.27716 | 4.94665 | 37394 ft | 462 kts | 54° |
| 2026-04-23 21:43 | 55.30729 | 5.04548 | 37393 ft | 460 kts | 73° |
| 2026-04-23 21:44 | 55.32089 | 5.15456 | 37382 ft | 457 kts | 82° |
| 2026-04-23 21:44 | 55.33155 | 5.26403 | 37381 ft | 458 kts | 82° |
| 2026-04-23 21:45 | 55.34224 | 5.37430 | 37385 ft | 458 kts | 82° |
| 2026-04-23 21:45 | 55.35281 | 5.48466 | 37383 ft | 458 kts | 82° |
| 2026-04-23 21:46 | 55.36321 | 5.59524 | 37361 ft | 459 kts | 82° |
| 2026-04-23 21:46 | 55.37355 | 5.70602 | 37359 ft | 460 kts | 82° |
| 2026-04-23 21:47 | 55.38385 | 5.81704 | 37353 ft | 460 kts | 82° |
| 2026-04-23 21:47 | 55.39408 | 5.92823 | 37357 ft | 461 kts | 82° |
| 2026-04-23 21:48 | 55.40419 | 6.03971 | 37341 ft | 462 kts | 83° |
| 2026-04-23 21:48 | 55.41415 | 6.15141 | 37342 ft | 462 kts | 82° |
| 2026-04-23 21:49 | 55.42418 | 6.26330 | 37319 ft | 463 kts | 82° |
| 2026-04-23 21:49 | 55.43244 | 6.35660 | 37317 ft | 464 kts | 82° |
| 2026-04-23 21:50 | 55.44222 | 6.46898 | 37315 ft | 465 kts | 82° |
| 2026-04-23 21:50 | 55.45193 | 6.58160 | 37322 ft | 465 kts | 83° |
| 2026-04-23 21:51 | 55.46150 | 6.69433 | 37308 ft | 465 kts | 82° |
| 2026-04-23 21:51 | 55.47097 | 6.80729 | 37313 ft | 466 kts | 82° |
| 2026-04-23 21:52 | 55.48036 | 6.92024 | 37310 ft | 466 kts | 82° |
| 2026-04-23 21:52 | 55.48968 | 7.03330 | 37303 ft | 466 kts | 82° |
| 2026-04-23 21:53 | 55.49896 | 7.14640 | 37294 ft | 466 kts | 82° |
| 2026-04-23 21:53 | 55.50807 | 7.25956 | 37294 ft | 466 kts | 82° |
| 2026-04-23 21:54 | 55.51705 | 7.37277 | 37289 ft | 466 kts | 82° |
| 2026-04-23 21:54 | 55.52587 | 7.48602 | 37291 ft | 466 kts | 82° |
| 2026-04-23 21:55 | 55.53549 | 7.59897 | 37276 ft | 465 kts | 76° |
| 2026-04-23 21:55 | 55.55072 | 7.71006 | 37282 ft | 466 kts | 76° |
| 2026-04-23 21:56 | 55.56582 | 7.82130 | 37281 ft | 466 kts | 76° |
| 2026-04-23 21:56 | 55.58071 | 7.93261 | 37284 ft | 465 kts | 76° |
| 2026-04-23 21:57 | 55.59554 | 8.04379 | 37286 ft | 464 kts | 76° |
| 2026-04-23 21:57 | 55.61032 | 8.15482 | 37274 ft | 464 kts | 76° |
| 2026-04-23 21:58 | 55.62490 | 8.26587 | 37267 ft | 463 kts | 76° |
| 2026-04-23 21:58 | 55.63938 | 8.37682 | 37256 ft | 463 kts | 76° |
| 2026-04-23 21:59 | 55.65372 | 8.48785 | 37260 ft | 462 kts | 76° |
| 2026-04-23 21:59 | 55.66785 | 8.59876 | 37150 ft | 462 kts | 76° |
| 2026-04-23 22:00 | 55.68192 | 8.70934 | 36609 ft | 460 kts | 76° |
| 2026-04-23 22:00 | 55.68885 | 8.76390 | 36348 ft | 460 kts | 76° |
| 2026-04-23 22:00 | 55.69585 | 8.81920 | 36079 ft | 460 kts | 76° |
| 2026-04-23 22:00 | 55.70283 | 8.87449 | 35829 ft | 459 kts | 76° |
| 2026-04-23 22:01 | 55.70976 | 8.92971 | 35578 ft | 458 kts | 76° |
| 2026-04-23 22:01 | 55.71663 | 8.98472 | 35328 ft | 456 kts | 76° |
| 2026-04-23 22:01 | 55.72343 | 9.03950 | 35086 ft | 454 kts | 76° |
| 2026-04-23 22:01 | 55.73017 | 9.09402 | 34841 ft | 451 kts | 76° |
| 2026-04-23 22:02 | 55.73682 | 9.14820 | 34599 ft | 449 kts | 76° |
| 2026-04-23 22:02 | 55.74342 | 9.20222 | 34360 ft | 447 kts | 76° |
| 2026-04-23 22:02 | 55.74996 | 9.25601 | 34113 ft | 445 kts | 76° |
| 2026-04-23 22:02 | 55.75645 | 9.30955 | 33838 ft | 443 kts | 76° |
| 2026-04-23 22:03 | 55.76291 | 9.36293 | 33567 ft | 441 kts | 76° |
| 2026-04-23 22:03 | 55.76931 | 9.41599 | 33305 ft | 439 kts | 76° |
| 2026-04-23 22:03 | 55.77572 | 9.46886 | 33040 ft | 437 kts | 76° |
| 2026-04-23 22:03 | 55.78208 | 9.52154 | 32766 ft | 435 kts | 76° |
| 2026-04-23 22:04 | 55.78836 | 9.57395 | 32501 ft | 433 kts | 76° |
| 2026-04-23 22:04 | 55.79456 | 9.62619 | 32261 ft | 431 kts | 75° |
| 2026-04-23 22:04 | 55.80068 | 9.67807 | 31979 ft | 426 kts | 75° |
| 2026-04-23 22:04 | 55.80672 | 9.72950 | 31506 ft | 424 kts | 75° |
| 2026-04-23 22:05 | 55.81272 | 9.78069 | 31036 ft | 422 kts | 75° |
| 2026-04-23 22:05 | 55.81868 | 9.83157 | 30575 ft | 420 kts | 75° |
| 2026-04-23 22:05 | 55.82461 | 9.88238 | 30098 ft | 418 kts | 75° |
| 2026-04-23 22:05 | 55.83047 | 9.93292 | 29625 ft | 415 kts | 76° |
| 2026-04-23 22:06 | 55.83625 | 9.98303 | 29180 ft | 412 kts | 76° |
| 2026-04-23 22:06 | 55.84196 | 10.03274 | 28749 ft | 409 kts | 76° |
| 2026-04-23 22:06 | 55.84763 | 10.08217 | 28334 ft | 406 kts | 76° |
| 2026-04-23 22:06 | 55.85323 | 10.13126 | 27914 ft | 404 kts | 76° |
| 2026-04-23 22:07 | 55.85880 | 10.18016 | 27495 ft | 402 kts | 76° |
| 2026-04-23 22:07 | 55.86436 | 10.22877 | 27082 ft | 400 kts | 75° |
| 2026-04-23 22:07 | 55.86986 | 10.27716 | 26660 ft | 399 kts | 75° |
| 2026-04-23 22:07 | 55.87533 | 10.32555 | 26243 ft | 397 kts | 75° |
| 2026-04-23 22:08 | 55.88074 | 10.37370 | 25812 ft | 396 kts | 75° |
| 2026-04-23 22:08 | 55.88611 | 10.42183 | 25372 ft | 396 kts | 75° |
| 2026-04-23 22:08 | 55.89147 | 10.46983 | 24933 ft | 395 kts | 76° |
| 2026-04-23 22:08 | 55.89535 | 10.51826 | 24484 ft | 397 kts | 85° |
| 2026-04-23 22:09 | 55.89382 | 10.56749 | 24031 ft | 400 kts | 97° |
| 2026-04-23 22:09 | 55.88809 | 10.61609 | 23529 ft | 401 kts | 100° |
| 2026-04-23 22:09 | 55.88215 | 10.66450 | 23057 ft | 399 kts | 100° |
| 2026-04-23 22:09 | 55.87628 | 10.71260 | 22577 ft | 396 kts | 99° |
| 2026-04-23 22:10 | 55.87047 | 10.76038 | 22112 ft | 394 kts | 99° |
| 2026-04-23 22:10 | 55.86465 | 10.80780 | 21644 ft | 391 kts | 99° |
| 2026-04-23 22:10 | 55.85884 | 10.85486 | 21182 ft | 388 kts | 99° |
| 2026-04-23 22:10 | 55.85307 | 10.90163 | 20717 ft | 385 kts | 99° |
| 2026-04-23 22:11 | 55.84729 | 10.94793 | 20286 ft | 382 kts | 100° |
| 2026-04-23 22:11 | 55.84103 | 10.99360 | 19841 ft | 379 kts | 101° |
| 2026-04-23 22:11 | 55.83450 | 11.03824 | 19408 ft | 376 kts | 101° |
| 2026-04-23 22:11 | 55.82770 | 11.08305 | 18972 ft | 374 kts | 102° |
| 2026-04-23 22:12 | 55.82088 | 11.12747 | 18541 ft | 371 kts | 101° |
| 2026-04-23 22:12 | 55.81413 | 11.17164 | 18057 ft | 369 kts | 101° |
| 2026-04-23 22:12 | 55.80750 | 11.21542 | 17629 ft | 365 kts | 101° |
| 2026-04-23 22:12 | 55.80101 | 11.25872 | 17203 ft | 361 kts | 101° |
| 2026-04-23 22:13 | 55.79462 | 11.30161 | 16792 ft | 356 kts | 101° |
| 2026-04-23 22:13 | 55.78838 | 11.34324 | 16363 ft | 341 kts | 101° |
| 2026-04-23 22:13 | 55.78236 | 11.38319 | 15974 ft | 328 kts | 101° |
| 2026-04-23 22:13 | 55.77654 | 11.42197 | 15598 ft | 324 kts | 101° |
| 2026-04-23 22:14 | 55.77224 | 11.46107 | 15222 ft | 321 kts | 93° |
| 2026-04-23 22:14 | 55.76927 | 11.50035 | 14854 ft | 321 kts | 93° |
| 2026-04-23 22:14 | 55.76623 | 11.53961 | 14462 ft | 321 kts | 94° |
| 2026-04-23 22:14 | 55.76314 | 11.57890 | 14088 ft | 321 kts | 94° |
| 2026-04-23 22:15 | 55.76001 | 11.61822 | 13684 ft | 322 kts | 94° |
| 2026-04-23 22:15 | 55.75685 | 11.65747 | 13295 ft | 321 kts | 94° |
| 2026-04-23 22:15 | 55.75367 | 11.69653 | 12919 ft | 319 kts | 94° |
| 2026-04-23 22:15 | 55.75050 | 11.73546 | 12537 ft | 318 kts | 94° |
| 2026-04-23 22:16 | 55.74738 | 11.77425 | 12151 ft | 317 kts | 94° |
| 2026-04-23 22:16 | 55.74427 | 11.81297 | 11771 ft | 316 kts | 94° |
| 2026-04-23 22:16 | 55.74117 | 11.85151 | 11392 ft | 315 kts | 94° |
| 2026-04-23 22:16 | 55.73804 | 11.88990 | 11096 ft | 312 kts | 93° |
| 2026-04-23 22:17 | 55.73490 | 11.92811 | 10738 ft | 311 kts | 93° |
| 2026-04-23 22:17 | 55.73176 | 11.96603 | 10356 ft | 311 kts | 93° |
| 2026-04-23 22:17 | 55.72859 | 12.00364 | 10102 ft | 306 kts | 93° |
| 2026-04-23 22:17 | 55.72546 | 12.04099 | 9698 ft | 305 kts | 93° |
| 2026-04-23 22:18 | 55.72237 | 12.07786 | 9146 ft | 298 kts | 93° |
| 2026-04-23 22:18 | 55.71937 | 12.11367 | 8772 ft | 292 kts | 93° |
| 2026-04-23 22:18 | 55.71640 | 12.14927 | 8412 ft | 292 kts | 94° |
| 2026-04-23 22:18 | 55.71343 | 12.18481 | 8060 ft | 291 kts | 94° |
| 2026-04-23 22:19 | 55.70817 | 12.21963 | 7700 ft | 295 kts | 109° |
| 2026-04-23 22:19 | 55.69781 | 12.25123 | 7332 ft | 300 kts | 125° |
| 2026-04-23 22:19 | 55.68295 | 12.27740 | 6967 ft | 302 kts | 137° |
| 2026-04-23 22:19 | 55.66709 | 12.30135 | 6537 ft | 295 kts | 137° |
| 2026-04-23 22:20 | 55.65174 | 12.32443 | 6160 ft | 284 kts | 137° |
| 2026-04-23 22:20 | 55.63698 | 12.34665 | 5799 ft | 273 kts | 137° |
| 2026-04-23 22:20 | 55.62234 | 12.36635 | 5452 ft | 265 kts | 150° |
| 2026-04-23 22:20 | 55.60518 | 12.37750 | 5124 ft | 264 kts | 170° |
| 2026-04-23 22:21 | 55.58632 | 12.37794 | 4997 ft | 277 kts | 191° |
| 2026-04-23 22:21 | 55.56805 | 12.36702 | 5006 ft | 276 kts | 211° |
| 2026-04-23 22:21 | 55.55201 | 12.35007 | 5000 ft | 262 kts | 213° |
| 2026-04-23 22:21 | 55.53562 | 12.33766 | 4784 ft | 255 kts | 192° |
| 2026-04-23 22:22 | 55.51815 | 12.33716 | 4295 ft | 251 kts | 168° |
| 2026-04-23 22:22 | 55.50200 | 12.34826 | 3658 ft | 251 kts | 147° |
| 2026-04-23 22:22 | 55.48856 | 12.36768 | 3178 ft | 246 kts | 129° |
| 2026-04-23 22:22 | 55.47939 | 12.39241 | 2944 ft | 237 kts | 107° |
| 2026-04-23 22:23 | 55.47848 | 12.41993 | 2789 ft | 220 kts | 69° |
| 2026-04-23 22:23 | 55.48670 | 12.44108 | 2584 ft | 207 kts | 39° |
| 2026-04-23 22:23 | 55.49739 | 12.45773 | 2364 ft | 203 kts | 38° |
| 2026-04-23 22:23 | 55.50789 | 12.47384 | 2169 ft | 197 kts | 38° |
| 2026-04-23 22:24 | 55.51803 | 12.48935 | 2046 ft | 187 kts | 38° |
| 2026-04-23 22:24 | 55.52759 | 12.50403 | 2048 ft | 180 kts | 38° |
| 2026-04-23 22:24 | 55.53666 | 12.51799 | 2022 ft | 165 kts | 38° |
| 2026-04-23 22:24 | 55.54519 | 12.53087 | 1815 ft | 161 kts | 36° |
| 2026-04-23 22:25 | 55.55419 | 12.54380 | 1390 ft | 173 kts | 38° |
| 2026-04-23 22:25 | 55.56322 | 12.55849 | 929 ft | 179 kts | 39° |
| 2026-04-23 22:25 | 55.57233 | 12.57287 | 742 ft | 171 kts | 38° |
| 2026-04-23 22:25 | 55.58119 | 12.58655 | 426 ft | 167 kts | 39° |
| 2026-04-23 22:26 | 55.58985 | 12.59988 | 148 ft | 161 kts | 39° |
| 2026-04-23 22:26 | 55.59780 | 12.61207 | 18 ft | 129 kts | 39° |
| 2026-04-23 22:26 | 55.60226 | 12.61905 | 19 ft | 42 kts | 40° |
| 2026-04-23 22:26 | 55.60305 | 12.62025 | 18 ft | 17 kts | 41° |
| 2026-04-23 22:27 | 55.60465 | 12.62266 | 21 ft | 36 kts | 43° |
| 2026-04-23 22:27 | 55.60684 | 12.62612 | 22 ft | 52 kts | 40° |
| 2026-04-23 22:27 | 55.60991 | 12.63077 | 19 ft | 58 kts | 41° |
| 2026-04-23 22:27 | 55.61287 | 12.63535 | 20 ft | 56 kts | 41° |
| 2026-04-23 22:28 | 55.61546 | 12.63940 | 17 ft | 39 kts | 41° |
| 2026-04-23 22:28 | 55.61617 | 12.64107 | 22 ft | 14 kts | 69° |
| 2026-04-23 22:28 | 55.61648 | 12.64342 | 18 ft | 0 kts | 85° |
| 2026-04-23 22:29 | 55.61650 | 12.64381 | 18 ft | 15 kts | 84° |
| 2026-04-23 22:29 | 55.61709 | 12.64600 | 19 ft | 23 kts | 39° |
| 2026-04-23 22:30 | 55.61822 | 12.64735 | 19 ft | 20 kts | 33° |
| 2026-04-23 22:30 | 55.61917 | 12.64843 | 17 ft | 15 kts | 33° |
| 2026-04-23 22:30 | 55.61955 | 12.64886 | 18 ft | 0 kts | 33° |
| 2026-04-23 22:30 | 55.61968 | 12.64901 | 20 ft | 8 kts | 32° |
| 2026-04-23 22:31 | 55.62063 | 12.65011 | 21 ft | 25 kts | 33° |
| 2026-04-23 22:31 | 55.62234 | 12.65178 | 23 ft | 27 kts | 5° |
| 2026-04-23 22:31 | 55.62397 | 12.65186 | 21 ft | 19 kts | 356° |
| 2026-04-23 22:31 | 55.62451 | 12.65179 | 20 ft | 8 kts | 356° |
| 2026-04-23 22:32 | 55.62570 | 12.65173 | 19 ft | 8 kts | 360° |
| 2026-04-23 22:32 | 55.62615 | 12.65164 | 20 ft | 7 kts | 345° |
| 2026-04-23 22:32 | 55.62638 | 12.65088 | 21 ft | 5 kts | 281° |
| 2026-04-23 22:32 | 55.62642 | 12.65059 | 21 ft | 0 kts | 283° |